createdAt,value
2019-02-19T15:46:29.369Z,42.38
2019-02-19T15:49:07.818Z,42.39
2019-02-19T15:51:49.817Z,42.83
2019-02-19T15:54:29.054Z,43.10
2019-02-19T15:57:01.758Z,43.22
2019-02-19T15:59:34.441Z,43.48
2019-02-19T16:02:04.349Z,43.55
2019-02-19T16:04:37.502Z,44.00
2019-02-19T16:07:07.430Z,43.78
2019-02-19T16:09:55.464Z,44.20
2019-02-19T16:12:28.184Z,44.09
2019-02-19T16:15:14.235Z,44.53
2019-02-19T16:17:51.233Z,44.22
2019-02-19T16:20:27.162Z,44.28
2019-02-19T16:23:09.500Z,44.37
2019-02-19T16:25:57.601Z,44.30
2019-02-19T16:28:33.419Z,44.18
2019-02-19T16:31:08.943Z,44.41
2019-02-19T16:33:42.478Z,44.13
2019-02-19T16:36:17.860Z,43.37
2019-02-19T16:38:47.863Z,43.15
2019-02-19T16:41:25.213Z,43.04
2019-02-19T16:43:58.008Z,42.81
2019-02-19T16:46:33.982Z,42.71
2019-02-19T16:49:09.997Z,42.82
2019-02-19T16:51:57.945Z,42.79
2019-02-19T16:54:27.849Z,42.86
2019-02-19T16:57:09.631Z,43.05
2019-02-19T16:59:48.206Z,43.05
2019-02-19T17:02:18.160Z,43.21
2019-02-19T17:04:51.037Z,43.32
2019-02-19T17:07:21.578Z,43.29
2019-02-19T17:09:54.490Z,43.47
2019-02-19T17:12:24.410Z,43.54
2019-02-19T17:14:57.371Z,43.53
2019-02-19T17:17:45.685Z,43.57
2019-02-19T17:20:29.501Z,43.68
2019-02-19T17:23:00.312Z,44.01
2019-02-19T17:25:30.804Z,44.25
2019-02-19T17:28:03.394Z,44.19
2019-02-19T17:30:36.272Z,44.10
2019-02-19T17:33:22.857Z,44.41
2019-02-19T17:35:58.540Z,44.38
2019-02-19T17:38:31.425Z,44.67
2019-02-19T17:41:01.366Z,44.72
2019-02-19T17:43:43.562Z,44.79
2019-02-19T17:46:25.469Z,44.78
2019-02-19T17:49:01.308Z,45.14
2019-02-19T17:51:34.586Z,45.39
2019-02-19T17:54:07.718Z,45.49
2019-02-19T17:56:46.632Z,45.77
2019-02-19T17:59:16.569Z,45.70
2019-02-19T18:01:58.603Z,45.90
2019-02-19T18:04:46.033Z,46.13
2019-02-19T18:07:24.741Z,46.49
2019-02-19T18:10:03.730Z,46.97
2019-02-19T18:12:43.829Z,47.05
2019-02-19T18:15:29.946Z,47.14
2019-02-19T18:18:02.561Z,47.44
2019-02-19T18:20:30.863Z,47.83
2019-02-19T18:22:59.165Z,47.98
2019-02-19T18:25:27.433Z,48.37
2019-02-19T18:27:55.741Z,48.10
2019-02-19T18:30:24.019Z,48.31
2019-02-19T18:32:52.323Z,48.14
2019-02-19T18:35:20.594Z,48.13
2019-02-19T18:37:48.895Z,48.03
2019-02-19T18:40:17.198Z,47.82
2019-02-19T18:42:45.473Z,47.91
2019-02-19T18:45:13.776Z,47.92
2019-02-19T18:47:42.546Z,47.89
2019-02-19T18:50:10.872Z,47.81
2019-02-19T18:52:39.144Z,48.13
2019-02-19T18:55:08.106Z,48.23
2019-02-19T18:57:37.393Z,48.36
2019-02-19T19:00:08.563Z,48.65
2019-02-19T19:02:36.851Z,48.57
2019-02-19T19:05:06.607Z,48.49
2019-02-19T19:07:34.870Z,48.47
2019-02-19T19:10:03.526Z,48.59
2019-02-19T19:12:31.826Z,48.74
2019-02-19T19:15:00.158Z,48.65
2019-02-19T19:17:28.653Z,48.68
2019-02-19T19:19:56.952Z,48.65
2019-02-19T19:22:25.221Z,48.71
2019-02-19T19:24:53.507Z,48.63
2019-02-19T19:27:21.771Z,48.83
2019-02-19T19:29:50.069Z,48.80
2019-02-19T19:32:18.334Z,49.04
2019-02-19T19:34:46.602Z,49.10
2019-02-19T19:37:14.907Z,49.02
2019-02-19T19:39:43.170Z,48.66
2019-02-19T19:42:11.478Z,48.65
2019-02-19T19:44:39.747Z,48.23
2019-02-19T19:47:08.016Z,48.24
2019-02-19T19:49:36.301Z,48.09
2019-02-19T19:52:04.569Z,48.46
2019-02-19T19:54:32.870Z,47.99
2019-02-19T19:57:02.219Z,47.91
2019-02-19T19:59:30.571Z,47.50
2019-02-19T20:01:58.800Z,47.66
2019-02-19T20:04:27.204Z,47.45
2019-02-19T20:06:55.701Z,47.57
2019-02-19T20:09:24.071Z,47.39
2019-02-19T20:11:52.548Z,47.33
2019-02-19T20:14:21.911Z,47.34
2019-02-19T20:16:50.404Z,47.51
2019-02-19T20:19:18.798Z,47.57
2019-02-19T20:21:47.166Z,47.86
2019-02-19T20:24:15.430Z,48.44
2019-02-19T20:26:43.750Z,48.21
2019-02-19T20:29:12.450Z,48.12
2019-02-19T20:31:40.722Z,48.25
2019-02-19T20:34:09.252Z,48.00
2019-02-19T20:36:37.982Z,48.43
2019-02-19T20:39:06.577Z,48.44
2019-02-19T20:41:34.857Z,48.56
2019-02-19T20:44:04.792Z,48.92
2019-02-19T20:46:33.090Z,49.27
2019-02-19T20:49:01.357Z,49.47
2019-02-19T20:51:36.211Z,49.63
2019-02-19T20:53:59.719Z,50.02
2019-02-19T20:56:27.987Z,51.48
2019-02-19T20:58:56.259Z,51.88
2019-02-19T21:01:24.566Z,52.44
2019-02-19T21:03:52.834Z,53.00
2019-02-19T21:06:21.918Z,53.58
2019-02-19T21:08:50.208Z,54.55
2019-02-19T21:11:18.484Z,54.83
2019-02-19T21:13:46.766Z,55.00
2019-02-19T21:16:15.060Z,54.98
2019-02-19T21:18:43.349Z,55.10
2019-02-19T21:21:11.630Z,55.26
2019-02-19T21:23:39.929Z,54.98
2019-02-19T21:26:08.230Z,55.28
2019-02-19T21:28:36.636Z,55.57
2019-02-19T21:31:05.125Z,55.54
2019-02-19T21:33:33.467Z,55.49
2019-02-19T21:36:01.747Z,55.65
2019-02-19T21:38:30.022Z,55.79
2019-02-19T21:40:58.322Z,55.64
2019-02-19T21:43:26.609Z,55.87
2019-02-19T21:45:54.941Z,56.29
2019-02-19T21:48:23.252Z,56.50
2019-02-19T21:50:51.524Z,56.78
2019-02-19T21:53:19.797Z,57.01
2019-02-19T21:55:48.076Z,57.33
2019-02-19T21:58:16.354Z,57.54
2019-02-19T22:00:44.662Z,57.51
2019-02-19T22:03:12.963Z,57.61
2019-02-19T22:05:41.238Z,57.80
2019-02-19T22:08:09.534Z,57.60
2019-02-19T22:10:37.801Z,57.64
2019-02-19T22:13:06.105Z,57.55
2019-02-19T22:15:34.370Z,57.81
2019-02-19T22:18:02.668Z,57.83
2019-02-19T22:20:35.242Z,58.07
2019-02-19T22:23:03.623Z,58.47
2019-02-19T22:25:31.871Z,58.36
2019-02-19T22:28:00.155Z,58.85
2019-02-19T22:30:28.509Z,59.31
2019-02-19T22:32:56.776Z,59.13
2019-02-19T22:35:25.057Z,59.00
2019-02-19T22:37:53.362Z,59.29
2019-02-19T22:40:21.662Z,59.32
2019-02-19T22:42:49.925Z,59.23
2019-02-19T22:45:18.200Z,59.64
2019-02-19T22:47:53.219Z,59.20
2019-02-19T22:50:16.487Z,59.08
2019-02-19T22:52:44.777Z,58.96
2019-02-19T22:55:14.677Z,59.17
2019-02-19T22:57:42.966Z,59.18
2019-02-19T23:00:24.619Z,59.29
2019-02-19T23:02:52.894Z,59.50
2019-02-19T23:05:21.154Z,59.74
2019-02-19T23:07:49.442Z,59.59
2019-02-19T23:10:17.699Z,59.56
2019-02-19T23:12:46.002Z,60.09
2019-02-19T23:15:14.248Z,59.75
2019-02-19T23:17:43.629Z,59.51
2019-02-19T23:20:11.889Z,59.86
2019-02-19T23:22:40.176Z,59.81
2019-02-19T23:25:08.906Z,60.41
2019-02-19T23:27:37.221Z,60.40
2019-02-19T23:30:06.210Z,60.24
2019-02-19T23:32:34.465Z,60.51
2019-02-19T23:35:07.279Z,60.51
2019-02-19T23:37:35.533Z,60.31
2019-02-19T23:40:05.164Z,60.13
2019-02-19T23:42:33.432Z,60.46
2019-02-19T23:45:01.816Z,60.92
2019-02-19T23:47:30.106Z,60.29
2019-02-19T23:49:58.430Z,59.96
2019-02-19T23:52:30.437Z,59.82
2019-02-19T23:54:56.684Z,59.92
2019-02-19T23:57:24.952Z,59.87
2019-02-19T23:59:53.209Z,59.63
